Time;durP1;ratioP1;P1;durP2;ratioP2;P2;SDS_P1;SDS_P2;PMS_P1;PMS_P2;Temp;Humidity;BMP_temperature;BMP_pressure;BME280_temperature;BME280_humidity;BME280_pressure;Samples;Min_cycle;Max_cycle;Signal;HPM_P1;HPM_P2
2024/01/20 00:00:14;;;;;;;35.60;15.00;;;-0.40;78.40;;;;;;4978339;28;20206;-71
2024/01/20 00:02:41;;;;;;;32.75;15.23;;;-0.40;78.40;;;;;;4975322;28;20247;-69
2024/01/20 00:05:07;;;;;;;33.35;16.05;;;-0.40;78.10;;;;;;4981513;28;20679;-71
2024/01/20 00:07:32;;;;;;;32.13;15.48;;;-0.50;78.00;;;;;;4983307;28;20253;-70
2024/01/20 00:09:58;;;;;;;36.43;15.10;;;-0.60;78.00;;;;;;4976191;28;20182;-69
2024/01/20 00:12:24;;;;;;;37.33;16.97;;;-0.80;78.30;;;;;;4972862;28;20426;-70
2024/01/20 00:14:49;;;;;;;33.53;15.03;;;-0.80;78.90;;;;;;4981136;28;20730;-69
2024/01/20 00:17:15;;;;;;;30.90;15.10;;;-0.80;79.00;;;;;;4975692;28;20274;-69
2024/01/20 00:19:41;;;;;;;35.43;14.80;;;-0.70;79.00;;;;;;4976809;28;20652;-70
2024/01/20 00:22:06;;;;;;;38.13;17.07;;;-0.70;79.20;;;;;;4974158;28;20434;-71
2024/01/20 00:24:32;;;;;;;33.57;15.70;;;-0.70;79.20;;;;;;4974608;28;20643;-71
2024/01/20 00:26:58;;;;;;;37.53;16.87;;;-0.60;79.20;;;;;;4976227;28;20553;-69
2024/01/20 00:29:23;;;;;;;29.67;14.33;;;-0.60;79.20;;;;;;4970852;28;20289;-72
2024/01/20 00:31:49;;;;;;;30.73;15.17;;;-0.60;79.00;;;;;;4974313;28;20239;-69
2024/01/20 00:34:14;;;;;;;32.63;14.67;;;-0.70;78.60;;;;;;4970761;28;20188;-69
2024/01/20 00:36:40;;;;;;;38.03;16.83;;;-1.00;78.70;;;;;;4970322;28;20207;-69
2024/01/20 00:39:05;;;;;;;41.23;17.47;;;-1.10;79.30;;;;;;4981564;28;20556;-69
2024/01/20 00:41:31;;;;;;;39.73;16.90;;;-1.20;79.70;;;;;;4974011;28;20218;-69
2024/01/20 00:43:58;;;;;;;37.63;16.10;;;-1.10;80.20;;;;;;4973921;28;20279;-70
2024/01/20 00:46:24;;;;;;;32.88;16.15;;;-1.10;80.30;;;;;;4975606;28;20270;-71
2024/01/20 00:48:50;;;;;;;27.60;12.63;;;-1.10;80.30;;;;;;4976466;28;20298;-68
2024/01/20 00:51:16;;;;;;;43.10;18.30;;;-1.10;80.30;;;;;;4974974;28;20540;-70
2024/01/20 00:53:41;;;;;;;37.20;15.77;;;-1.20;80.00;;;;;;4975964;28;20183;-71
2024/01/20 00:56:07;;;;;;;33.33;15.30;;;-1.30;80.20;;;;;;4972817;28;20929;-70
2024/01/20 00:58:32;;;;;;;42.33;17.83;;;-1.40;80.50;;;;;;4982670;28;20219;-70
2024/01/20 01:00:58;;;;;;;37.20;17.60;;;-1.40;80.90;;;;;;4980255;28;20203;-71
2024/01/20 01:03:24;;;;;;;43.40;16.87;;;-1.40;80.90;;;;;;4971979;28;20225;-67
2024/01/20 01:05:49;;;;;;;33.60;16.03;;;-1.50;81.10;;;;;;4976323;28;20238;-72
2024/01/20 01:08:15;;;;;;;22.33;9.13;;;-1.60;81.10;;;;;;4982933;28;20195;-72
2024/01/20 01:10:41;;;;;;;45.13;14.87;;;-1.80;81.40;;;;;;4978686;28;20218;-70
2024/01/20 01:13:07;;;;;;;37.75;17.50;;;-1.90;82.10;;;;;;4978891;28;20206;-68
2024/01/20 01:15:33;;;;;;;35.80;15.93;;;-2.00;82.80;;;;;;4974197;28;20638;-68
2024/01/20 01:17:58;;;;;;;50.17;18.67;;;-1.90;83.10;;;;;;4979669;28;20232;-68
2024/01/20 01:20:24;;;;;;;46.57;16.60;;;-1.90;83.30;;;;;;4974674;28;20211;-70
2024/01/20 01:22:51;;;;;;;50.10;20.10;;;-1.90;83.30;;;;;;4982674;28;20254;-69
2024/01/20 01:25:17;;;;;;;48.30;20.50;;;-1.80;83.30;;;;;;4982633;28;20282;-69
2024/01/20 01:27:42;;;;;;;48.70;19.80;;;-1.80;83.30;;;;;;4974587;28;20270;-68
2024/01/20 01:30:09;;;;;;;42.97;18.13;;;-1.90;83.10;;;;;;4975413;28;20490;-69
2024/01/20 01:32:34;;;;;;;41.03;17.83;;;-1.80;83.10;;;;;;4972520;28;20661;-69
2024/01/20 01:35:00;;;;;;;48.40;20.73;;;-1.80;83.00;;;;;;4978487;28;20274;-70
2024/01/20 01:37:25;;;;;;;47.33;18.67;;;-1.90;83.10;;;;;;4976178;28;20202;-69
2024/01/20 01:39:51;;;;;;;48.33;18.50;;;-1.80;83.30;;;;;;4984020;28;20185;-70
2024/01/20 01:42:16;;;;;;;42.20;18.90;;;-1.80;83.10;;;;;;4974932;28;20198;-68
2024/01/20 01:44:42;;;;;;;47.47;18.93;;;-1.80;83.30;;;;;;4972049;28;20215;-68
2024/01/20 01:47:08;;;;;;;46.90;18.43;;;-1.80;83.30;;;;;;4972292;28;20195;-69
2024/01/20 01:49:34;;;;;;;48.83;20.80;;;-1.80;83.40;;;;;;4980007;28;20618;-69
2024/01/20 01:52:00;;;;;;;30.40;11.77;;;-1.80;83.60;;;;;;4970652;28;20313;-70
2024/01/20 01:54:26;;;;;;;37.63;15.20;;;-1.80;83.70;;;;;;4976688;28;20210;-69
2024/01/20 01:56:54;;;;;;;40.85;16.63;;;-1.90;83.70;;;;;;4982668;28;20419;-68
2024/01/20 01:59:20;;;;;;;39.42;17.23;;;-2.00;83.70;;;;;;4970948;28;20207;-68
2024/01/20 02:01:45;;;;;;;37.20;16.40;;;-2.10;84.00;;;;;;4972234;28;20250;-70
2024/01/20 02:04:11;;;;;;;28.53;9.03;;;-2.10;84.10;;;;;;4978766;28;20198;-68
2024/01/20 02:06:37;;;;;;;42.07;17.70;;;-2.10;84.30;;;;;;4978370;28;20195;-70
2024/01/20 02:09:03;;;;;;;46.97;19.73;;;-2.20;84.10;;;;;;4982160;28;21033;-70
2024/01/20 02:11:29;;;;;;;48.88;19.40;;;-2.10;84.30;;;;;;4980498;28;20219;-70
2024/01/20 02:13:55;;;;;;;39.33;18.35;;;-2.00;84.60;;;;;;4981679;28;20255;-68
2024/01/20 02:16:21;;;;;;;44.50;18.17;;;-2.00;84.40;;;;;;4988566;28;20223;-70
2024/01/20 02:18:47;;;;;;;46.63;19.83;;;-1.90;84.30;;;;;;4995966;28;20426;-70
2024/01/20 02:21:12;;;;;;;48.33;20.10;;;-1.90;84.30;;;;;;4977893;28;20654;-70
2024/01/20 02:23:41;;;;;;;43.60;18.10;;;-1.90;84.10;;;;;;4974546;28;20194;-70
2024/01/20 02:26:07;;;;;;;46.88;19.15;;;-1.80;84.00;;;;;;4978018;28;20245;-69
2024/01/20 02:28:33;;;;;;;40.10;17.13;;;-1.70;84.00;;;;;;4971549;28;20179;-69
2024/01/20 02:30:58;;;;;;;52.90;21.33;;;-1.60;84.10;;;;;;4964145;28;20478;-68
2024/01/20 02:33:24;;;;;;;44.40;19.40;;;-1.50;83.80;;;;;;4970048;28;20483;-71
2024/01/20 02:35:50;;;;;;;43.83;18.77;;;-1.50;83.70;;;;;;4980637;28;20186;-71
2024/01/20 02:38:15;;;;;;;46.50;19.80;;;-1.50;83.30;;;;;;4980504;28;20199;-70
2024/01/20 02:40:41;;;;;;;43.97;17.30;;;-1.70;82.70;;;;;;4974416;28;20241;-69
2024/01/20 02:43:06;;;;;;;35.93;15.40;;;-1.70;82.50;;;;;;4973318;28;20672;-71
2024/01/20 02:45:33;;;;;;;38.57;17.50;;;-1.80;82.50;;;;;;4975417;28;20187;-70
2024/01/20 02:47:58;;;;;;;55.42;20.70;;;-2.00;83.00;;;;;;4974957;28;20187;-71
2024/01/20 02:50:24;;;;;;;52.07;20.17;;;-2.00;83.60;;;;;;4971408;28;20218;-70
2024/01/20 02:52:51;;;;;;;24.40;10.50;;;-2.10;83.70;;;;;;4973354;28;20184;-69
2024/01/20 02:55:17;;;;;;;42.58;19.83;;;-2.10;84.10;;;;;;4973199;28;20194;-69
2024/01/20 02:57:42;;;;;;;51.60;18.83;;;-2.10;84.10;;;;;;4980563;28;20202;-69
2024/01/20 03:00:09;;;;;;;47.43;19.77;;;-2.10;84.30;;;;;;4974496;28;20211;-69
2024/01/20 03:02:34;;;;;;;50.78;21.75;;;-2.20;84.10;;;;;;4977288;28;20278;-70
2024/01/20 03:05:00;;;;;;;47.73;19.90;;;-2.20;84.10;;;;;;4976385;28;20278;-71
2024/01/20 03:07:26;;;;;;;54.28;22.73;;;-2.10;84.60;;;;;;4980306;28;20207;-68
2024/01/20 03:09:52;;;;;;;56.93;20.03;;;-2.00;84.40;;;;;;4979448;28;20262;-69
2024/01/20 03:12:17;;;;;;;44.00;17.23;;;-1.90;84.40;;;;;;4973042;28;20222;-68
2024/01/20 03:14:43;;;;;;;48.27;17.10;;;-1.80;84.30;;;;;;4982269;28;20187;-70
2024/01/20 03:17:09;;;;;;;47.70;17.30;;;-1.90;83.60;;;;;;4978152;28;20206;-69
2024/01/20 03:19:34;;;;;;;50.30;19.73;;;-2.00;83.70;;;;;;4983540;28;20439;-70
2024/01/20 03:22:00;;;;;;;46.13;19.47;;;-2.00;83.70;;;;;;4977596;28;20565;-70
2024/01/20 03:24:25;;;;;;;46.97;18.97;;;-2.00;83.70;;;;;;4972763;28;20656;-69
2024/01/20 03:26:54;;;;;;;50.33;21.67;;;-2.10;83.70;;;;;;4972288;28;20210;-71
2024/01/20 03:29:20;;;;;;;48.47;19.45;;;-2.00;83.80;;;;;;4977719;28;20191;-66
2024/01/20 03:31:45;;;;;;;46.13;19.70;;;-1.90;84.00;;;;;;4971999;28;20211;-70
2024/01/20 03:34:11;;;;;;;46.30;19.63;;;-1.70;84.00;;;;;;4970899;28;20270;-71
2024/01/20 03:36:36;;;;;;;43.63;18.60;;;-1.70;83.80;;;;;;4979483;28;20916;-71
2024/01/20 03:39:02;;;;;;;44.03;17.40;;;-1.60;83.60;;;;;;4968866;28;20226;-69
2024/01/20 03:41:28;;;;;;;46.30;18.43;;;-1.50;83.00;;;;;;4973553;28;20223;-68
2024/01/20 03:43:54;;;;;;;43.00;19.90;;;-1.50;82.70;;;;;;4974179;28;20457;-69
2024/01/20 03:46:20;;;;;;;40.53;18.48;;;-1.40;82.50;;;;;;4971283;28;20194;-71
2024/01/20 03:48:45;;;;;;;41.07;18.47;;;-1.40;82.20;;;;;;4971246;28;20270;-69
2024/01/20 03:51:11;;;;;;;50.33;20.50;;;-1.40;82.10;;;;;;4975483;28;20226;-70
2024/01/20 03:53:37;;;;;;;41.43;19.50;;;-1.40;81.90;;;;;;4972955;28;20191;-67
2024/01/20 03:56:02;;;;;;;50.17;21.30;;;-1.40;81.90;;;;;;4975946;28;20614;-68
2024/01/20 03:58:28;;;;;;;56.20;20.97;;;-1.40;81.80;;;;;;4980329;28;20187;-68
2024/01/20 04:00:54;;;;;;;48.70;17.53;;;-1.30;81.70;;;;;;4982037;28;20622;-70
2024/01/20 04:03:20;;;;;;;45.50;17.73;;;-1.40;81.10;;;;;;4973001;28;20210;-68
2024/01/20 04:05:47;;;;;;;48.93;20.20;;;-1.70;81.10;;;;;;4976471;28;20195;-71
2024/01/20 04:08:13;;;;;;;46.83;21.20;;;-1.80;81.70;;;;;;4971951;28;20634;-71
2024/01/20 04:10:39;;;;;;;48.78;20.25;;;-1.90;82.10;;;;;;4972765;28;20214;-73
2024/01/20 04:13:05;;;;;;;36.47;14.37;;;-1.90;82.40;;;;;;4974798;28;20218;-71
2024/01/20 04:15:31;;;;;;;47.27;16.30;;;-2.00;82.70;;;;;;4970808;28;21002;-69
2024/01/20 04:17:56;;;;;;;59.67;24.17;;;-2.10;83.10;;;;;;4977020;28;20274;-71
2024/01/20 04:20:22;;;;;;;55.07;21.40;;;-2.10;83.40;;;;;;4968749;28;20214;-69
2024/01/20 04:22:47;;;;;;;50.03;21.60;;;-2.10;83.60;;;;;;4980920;28;20191;-69
2024/01/20 04:25:13;;;;;;;48.00;21.40;;;-2.00;83.80;;;;;;4975382;28;20214;-68
2024/01/20 04:27:40;;;;;;;49.50;21.73;;;-2.00;83.60;;;;;;4970815;28;20199;-68
2024/01/20 04:30:10;;;;;;;50.83;22.35;;;-2.10;83.30;;;;;;4971116;28;22062;-72
2024/01/20 04:32:36;;;;;;;53.13;22.10;;;-2.10;83.30;;;;;;4974803;28;20234;-69
2024/01/20 04:35:04;;;;;;;58.47;22.27;;;-2.10;83.40;;;;;;4975449;28;20194;-71
2024/01/20 04:37:30;;;;;;;58.40;21.83;;;-2.10;83.60;;;;;;4977751;28;20191;-69
2024/01/20 04:39:56;;;;;;;45.37;19.93;;;-2.10;83.60;;;;;;4980813;28;20198;-67
2024/01/20 04:42:22;;;;;;;45.58;17.80;;;-1.90;83.80;;;;;;4978162;28;20183;-71
2024/01/20 04:44:47;;;;;;;33.23;13.73;;;-1.90;83.60;;;;;;4978837;28;20196;-68
2024/01/20 04:47:13;;;;;;;50.47;20.07;;;-2.10;82.70;;;;;;4981886;28;20426;-69
2024/01/20 04:49:38;;;;;;;44.63;20.03;;;-2.30;82.80;;;;;;4975248;28;20623;-69
2024/01/20 04:52:04;;;;;;;37.20;15.10;;;-2.40;83.70;;;;;;4973216;28;20222;-66
2024/01/20 04:54:30;;;;;;;56.03;19.67;;;-2.50;84.00;;;;;;4972882;28;20263;-69
2024/01/20 04:56:57;;;;;;;54.57;20.40;;;-2.50;84.30;;;;;;4965806;28;20285;-70
2024/01/20 04:59:23;;;;;;;41.17;15.93;;;-2.50;84.40;;;;;;4970391;28;20248;-68
2024/01/20 05:01:48;;;;;;;43.97;19.57;;;-2.60;84.40;;;;;;4975797;28;20219;-69
2024/01/20 05:04:15;;;;;;;51.30;20.90;;;-2.60;84.70;;;;;;4973886;28;20442;-70
2024/01/20 05:06:40;;;;;;;46.10;20.40;;;-2.50;84.90;;;;;;4979319;28;20195;-70
2024/01/20 05:09:06;;;;;;;29.93;10.90;;;-2.50;85.00;;;;;;4977029;28;20221;-69
2024/01/20 05:11:31;;;;;;;32.50;13.57;;;-2.50;85.00;;;;;;4968349;28;20265;-69
2024/01/20 05:13:57;;;;;;;24.37;11.30;;;-2.60;84.60;;;;;;4972214;28;20199;-68
2024/01/20 05:16:22;;;;;;;44.43;16.47;;;-2.70;84.70;;;;;;4972619;28;20223;-68
2024/01/20 05:18:48;;;;;;;42.60;18.00;;;-2.80;84.90;;;;;;4981758;28;20261;-69
2024/01/20 05:21:14;;;;;;;49.03;19.70;;;-2.80;85.30;;;;;;4971189;28;20230;-69
2024/01/20 05:23:40;;;;;;;46.97;20.48;;;-2.80;85.20;;;;;;4990055;28;20270;-70
2024/01/20 05:26:06;;;;;;;52.50;20.27;;;-2.70;85.20;;;;;;4976896;28;20701;-68
2024/01/20 05:28:32;;;;;;;49.80;18.57;;;-2.60;85.30;;;;;;4975395;28;20434;-69
2024/01/20 05:30:57;;;;;;;38.57;18.17;;;-2.50;85.30;;;;;;4965329;28;20239;-68
2024/01/20 05:33:23;;;;;;;50.13;19.13;;;-2.40;85.20;;;;;;4968835;28;20183;-70
2024/01/20 05:35:49;;;;;;;50.23;19.77;;;-2.40;84.90;;;;;;4973664;28;20262;-69
2024/01/20 05:38:14;;;;;;;44.10;18.87;;;-2.40;84.60;;;;;;4979153;28;20198;-70
2024/01/20 05:40:40;;;;;;;44.70;19.20;;;-2.40;84.40;;;;;;4971991;28;20669;-68
2024/01/20 05:43:06;;;;;;;46.10;19.03;;;-2.50;84.10;;;;;;4971289;28;20648;-69
2024/01/20 05:45:32;;;;;;;51.43;18.10;;;-2.40;84.10;;;;;;4974464;28;20293;-69
2024/01/20 05:47:57;;;;;;;42.92;18.48;;;-2.50;84.00;;;;;;4977287;28;21147;-68
2024/01/20 05:50:23;;;;;;;49.90;20.67;;;-2.60;83.80;;;;;;4970382;28;20215;-69
2024/01/20 05:52:49;;;;;;;54.20;22.83;;;-2.70;83.80;;;;;;4974328;28;20190;-69
2024/01/20 05:55:15;;;;;;;49.97;20.40;;;-2.70;84.10;;;;;;4977791;28;20192;-68
2024/01/20 05:57:41;;;;;;;47.07;20.93;;;-2.70;84.10;;;;;;4973059;28;20198;-69
2024/01/20 06:00:08;;;;;;;47.13;20.50;;;-2.70;84.10;;;;;;4972548;28;20218;-70
2024/01/20 06:02:35;;;;;;;51.75;21.55;;;-2.70;84.30;;;;;;4974502;28;20191;-71
2024/01/20 06:05:01;;;;;;;58.72;21.85;;;-2.70;84.40;;;;;;4973066;28;20201;-68
2024/01/20 06:07:27;;;;;;;56.03;22.00;;;-2.60;84.40;;;;;;4969164;28;20674;-71
2024/01/20 06:09:52;;;;;;;52.47;22.10;;;-2.60;84.60;;;;;;4960010;28;20186;-69
2024/01/20 06:12:18;;;;;;;62.93;24.07;;;-2.60;84.40;;;;;;4972197;28;20226;-68
2024/01/20 06:14:44;;;;;;;57.90;23.67;;;-2.60;84.30;;;;;;4976248;28;20599;-68
2024/01/20 06:17:09;;;;;;;48.90;22.43;;;-2.60;84.30;;;;;;4966574;28;20563;-68
2024/01/20 06:19:35;;;;;;;50.67;21.80;;;-2.50;84.40;;;;;;4970718;28;20212;-70
2024/01/20 06:22:01;;;;;;;63.63;22.93;;;-2.50;84.60;;;;;;4973435;28;20219;-71
2024/01/20 06:24:27;;;;;;;61.35;24.40;;;-2.50;84.30;;;;;;4969435;28;20175;-71
2024/01/20 06:26:52;;;;;;;59.20;22.30;;;-2.50;84.10;;;;;;4967515;28;20185;-70
2024/01/20 06:29:18;;;;;;;61.70;24.20;;;-2.60;84.10;;;;;;4976527;28;20207;-70
2024/01/20 06:31:43;;;;;;;58.60;22.17;;;-2.70;84.10;;;;;;4973542;28;20694;-69
2024/01/20 06:34:09;;;;;;;51.67;22.20;;;-2.80;84.30;;;;;;4974126;28;20287;-70
2024/01/20 06:36:34;;;;;;;59.87;23.83;;;-2.80;84.60;;;;;;4962972;28;20207;-70
2024/01/20 06:39:00;;;;;;;67.30;26.27;;;-2.80;84.70;;;;;;4971903;28;20191;-69
2024/01/20 06:41:25;;;;;;;66.23;24.63;;;-2.70;84.70;;;;;;4968671;28;20223;-70
2024/01/20 06:43:51;;;;;;;59.33;22.07;;;-2.80;84.90;;;;;;4972005;28;20190;-71
2024/01/20 06:46:17;;;;;;;58.80;24.23;;;-2.80;85.00;;;;;;4972284;28;20632;-70
2024/01/20 06:48:42;;;;;;;59.27;22.70;;;-2.80;85.20;;;;;;4964741;28;20245;-71
2024/01/20 06:51:14;;;;;;;62.00;23.17;;;-2.80;85.20;;;;;;4969410;28;20266;-69
2024/01/20 06:53:40;;;;;;;60.40;23.67;;;-2.90;84.90;;;;;;4969389;28;20234;-70
2024/01/20 06:56:06;;;;;;;56.13;21.43;;;-3.00;84.90;;;;;;4975360;28;20184;-68
2024/01/20 06:58:31;;;;;;;63.57;23.93;;;-3.00;85.00;;;;;;4973906;28;20195;-69
2024/01/20 07:00:57;;;;;;;61.23;21.27;;;-2.90;85.20;;;;;;4970508;28;20701;-70
2024/01/20 07:03:23;;;;;;;59.60;23.27;;;-2.90;85.20;;;;;;4972348;28;20667;-70
2024/01/20 07:05:49;;;;;;;57.88;24.05;;;-2.90;85.20;;;;;;4976219;28;20175;-70
2024/01/20 07:08:14;;;;;;;57.90;21.20;;;-2.90;85.20;;;;;;4979278;28;20213;-70
2024/01/20 07:10:40;;;;;;;57.73;21.30;;;-2.80;85.20;;;;;;4974039;28;20211;-68
2024/01/20 07:13:05;;;;;;;56.53;22.20;;;-2.80;85.30;;;;;;4970960;28;20231;-70
2024/01/20 07:15:31;;;;;;;59.27;22.93;;;-2.90;85.30;;;;;;4980863;28;20261;-69
2024/01/20 07:17:57;;;;;;;56.43;23.00;;;-3.00;85.20;;;;;;4977941;28;20178;-70
2024/01/20 07:20:23;;;;;;;53.00;21.07;;;-2.90;85.30;;;;;;4978970;28;20978;-68
2024/01/20 07:22:49;;;;;;;52.17;20.05;;;-2.90;85.30;;;;;;4979783;28;20202;-70
2024/01/20 07:25:16;;;;;;;59.05;21.98;;;-2.90;85.20;;;;;;4985334;28;20191;-69
2024/01/20 07:27:41;;;;;;;52.97;20.40;;;-2.90;84.90;;;;;;4980470;28;20183;-69
2024/01/20 07:30:08;;;;;;;56.13;21.80;;;-3.00;84.90;;;;;;4981758;28;20785;-71
2024/01/20 07:32:34;;;;;;;61.85;23.05;;;-3.00;84.90;;;;;;4980763;28;20485;-70
2024/01/20 07:34:59;;;;;;;55.30;20.03;;;-3.10;85.00;;;;;;4977227;28;20188;-70
2024/01/20 07:37:25;;;;;;;57.07;21.33;;;-3.00;85.20;;;;;;4972394;28;20706;-70
2024/01/20 07:39:50;;;;;;;63.57;21.80;;;-3.00;85.30;;;;;;4975618;28;20190;-70
2024/01/20 07:42:16;;;;;;;50.93;19.80;;;-3.00;85.30;;;;;;4973916;28;20188;-69
2024/01/20 07:44:42;;;;;;;51.47;20.67;;;-3.00;85.20;;;;;;4980219;28;20183;-68
2024/01/20 07:47:08;;;;;;;63.90;23.47;;;-3.00;85.30;;;;;;4976258;28;20202;-70
2024/01/20 07:49:33;;;;;;;62.05;23.35;;;-3.00;85.20;;;;;;4969488;28;20184;-69
2024/01/20 07:51:59;;;;;;;70.13;25.20;;;-3.00;85.30;;;;;;4977638;28;20258;-71
2024/01/20 07:54:24;;;;;;;53.60;22.10;;;-2.90;85.30;;;;;;4980830;28;20191;-69
2024/01/20 07:56:50;;;;;;;60.20;22.97;;;-2.90;85.50;;;;;;4986726;28;20809;-70
2024/01/20 07:59:16;;;;;;;57.60;22.02;;;-2.70;85.50;;;;;;4989401;28;20218;-71
2024/01/20 08:01:42;;;;;;;48.77;20.40;;;-2.70;85.30;;;;;;4978868;28;20229;-71
2024/01/20 08:04:08;;;;;;;53.53;21.83;;;-2.80;84.40;;;;;;4981859;28;20453;-69
2024/01/20 08:06:36;;;;;;;57.23;23.07;;;-2.80;84.30;;;;;;4989059;28;20654;-70
2024/01/20 08:09:02;;;;;;;49.35;20.00;;;-2.90;84.40;;;;;;4981961;28;20225;-70
2024/01/20 08:11:28;;;;;;;54.13;22.15;;;-2.80;84.60;;;;;;4983840;28;20226;-70
2024/01/20 08:13:54;;;;;;;49.75;19.85;;;-2.90;84.40;;;;;;4983036;28;20268;-70
2024/01/20 08:16:20;;;;;;;46.07;18.80;;;-2.90;84.30;;;;;;4985184;28;20214;-70
2024/01/20 08:18:46;;;;;;;53.67;21.30;;;-2.90;84.40;;;;;;4989071;28;20199;-71
2024/01/20 08:21:11;;;;;;;38.57;17.47;;;-3.00;84.30;;;;;;4981957;28;20214;-69
2024/01/20 08:23:37;;;;;;;52.57;22.00;;;-3.00;84.30;;;;;;4980620;28;20247;-71
2024/01/20 08:26:03;;;;;;;56.13;20.33;;;-3.00;84.10;;;;;;4983737;28;20651;-71
2024/01/20 08:28:29;;;;;;;50.97;22.60;;;-3.10;84.30;;;;;;4976728;28;20194;-71
2024/01/20 08:30:55;;;;;;;52.13;22.20;;;-3.10;84.40;;;;;;4977111;28;20219;-70
2024/01/20 08:33:21;;;;;;;51.17;20.13;;;-3.20;84.60;;;;;;4982637;28;20222;-71
2024/01/20 08:35:49;;;;;;;53.23;20.47;;;-3.10;84.90;;;;;;4974033;28;20315;-71
2024/01/20 08:38:15;;;;;;;58.90;23.25;;;-3.00;84.90;;;;;;4978963;28;20550;-70
2024/01/20 08:40:41;;;;;;;63.30;23.27;;;-3.00;84.70;;;;;;4978251;28;20226;-71
2024/01/20 08:43:07;;;;;;;52.60;19.85;;;-2.80;84.90;;;;;;4980859;28;20762;-70
2024/01/20 08:45:33;;;;;;;50.27;18.77;;;-2.90;84.40;;;;;;4978851;28;20249;-69
2024/01/20 08:47:58;;;;;;;60.60;22.43;;;-3.10;84.30;;;;;;4978590;28;20187;-71
2024/01/20 08:50:24;;;;;;;63.00;22.30;;;-3.00;84.90;;;;;;4982107;28;20202;-71
2024/01/20 08:52:52;;;;;;;56.53;20.60;;;-3.00;85.00;;;;;;4982913;28;20184;-72
2024/01/20 08:55:20;;;;;;;43.20;16.23;;;-2.90;85.00;;;;;;4978213;28;20602;-71
2024/01/20 08:57:49;;;;;;;43.38;19.25;;;-3.00;84.40;;;;;;4982631;28;20178;-72
2024/01/20 09:00:16;;;;;;;31.38;13.27;;;-3.10;84.30;;;;;;4977851;28;20573;-70
2024/01/20 09:02:42;;;;;;;54.17;22.05;;;-3.10;84.70;;;;;;4980523;28;20625;-71
2024/01/20 09:05:08;;;;;;;47.40;19.70;;;-3.10;84.60;;;;;;4969068;28;20257;-69
2024/01/20 09:07:33;;;;;;;54.07;21.17;;;-3.10;85.00;;;;;;4984328;28;20285;-71
2024/01/20 09:10:00;;;;;;;56.33;21.47;;;-3.10;84.90;;;;;;4975271;28;20195;-71
2024/01/20 09:12:26;;;;;;;52.55;19.40;;;-3.10;84.70;;;;;;4983797;28;20204;-71
2024/01/20 09:14:51;;;;;;;68.53;24.98;;;-3.00;84.70;;;;;;4972502;28;20198;-70
2024/01/20 09:17:18;;;;;;;52.07;20.80;;;-2.90;84.90;;;;;;4979823;28;20179;-70
2024/01/20 09:19:44;;;;;;;63.78;23.30;;;-2.80;84.90;;;;;;4972560;28;20183;-71
2024/01/20 09:22:10;;;;;;;56.70;21.87;;;-2.80;84.60;;;;;;4973774;28;20198;-71
2024/01/20 09:24:35;;;;;;;48.17;19.33;;;-2.70;84.60;;;;;;4978085;28;20427;-72
2024/01/20 09:27:02;;;;;;;45.87;20.33;;;-2.70;84.30;;;;;;4977594;28;20198;-72
2024/01/20 09:29:28;;;;;;;46.85;19.30;;;-2.70;83.70;;;;;;4978671;28;20942;-69
2024/01/20 09:31:54;;;;;;;60.37;21.80;;;-2.70;83.40;;;;;;4977990;28;20308;-73
2024/01/20 09:34:19;;;;;;;46.40;18.83;;;-2.70;83.60;;;;;;4975761;28;20175;-70
2024/01/20 09:36:45;;;;;;;54.23;20.80;;;-2.50;83.80;;;;;;4977002;28;20206;-73
2024/01/20 09:39:12;;;;;;;50.47;19.83;;;-2.40;83.60;;;;;;4979221;28;20273;-72
2024/01/20 09:41:39;;;;;;;49.20;20.15;;;-2.30;83.40;;;;;;4965478;28;20222;-71
2024/01/20 09:44:07;;;;;;;50.47;21.05;;;-2.10;83.40;;;;;;4971251;28;20794;-71
2024/01/20 09:46:33;;;;;;;49.47;18.75;;;-2.10;82.50;;;;;;4966673;28;20179;-75
2024/01/20 09:49:00;;;;;;;47.80;19.02;;;-2.40;81.40;;;;;;4981095;28;20260;-72
2024/01/20 09:51:28;;;;;;;62.58;22.20;;;-2.50;81.80;;;;;;4968729;28;20227;-72
2024/01/20 09:53:59;;;;;;;58.20;23.85;;;-2.50;82.70;;;;;;4964914;28;20193;-70
2024/01/20 09:56:26;;;;;;;39.58;15.77;;;-2.40;83.00;;;;;;4964273;28;20330;-72
2024/01/20 09:58:55;;;;;;;51.47;20.33;;;-2.40;82.80;;;;;;4967239;28;20191;-70
2024/01/20 10:01:21;;;;;;;56.53;21.27;;;-2.60;82.50;;;;;;4962806;28;20215;-72
2024/01/20 10:03:48;;;;;;;53.40;20.77;;;-2.60;83.10;;;;;;4974863;28;20195;-70
2024/01/20 10:06:13;;;;;;;53.45;22.02;;;-2.50;83.10;;;;;;4974878;28;20845;-71
2024/01/20 10:08:39;;;;;;;48.47;17.50;;;-2.40;83.10;;;;;;4981516;28;20206;-70
2024/01/20 10:11:05;;;;;;;55.57;20.77;;;-2.30;83.00;;;;;;4980837;28;20255;-72
2024/01/20 10:13:31;;;;;;;58.42;21.85;;;-2.50;82.40;;;;;;4972864;28;20179;-72
2024/01/20 10:15:57;;;;;;;55.57;23.13;;;-2.50;82.50;;;;;;4979234;28;20214;-70
2024/01/20 10:18:22;;;;;;;44.10;20.93;;;-2.30;82.80;;;;;;4970052;28;20608;-72
2024/01/20 10:20:48;;;;;;;50.23;21.40;;;-2.20;83.00;;;;;;4965544;28;20524;-70
2024/01/20 10:23:14;;;;;;;47.60;20.33;;;-2.00;83.10;;;;;;4966550;28;20206;-71
2024/01/20 10:25:40;;;;;;;50.33;20.73;;;-1.80;83.00;;;;;;4967960;28;20285;-71
2024/01/20 10:28:09;;;;;;;52.22;21.77;;;-1.70;82.50;;;;;;4964235;28;20210;-71
2024/01/20 10:30:37;;;;;;;47.60;19.45;;;-1.70;82.10;;;;;;4965468;28;20321;-72
2024/01/20 10:33:05;;;;;;;46.15;20.20;;;-1.50;81.90;;;;;;4967204;28;20191;-73
2024/01/20 10:35:30;;;;;;;47.72;20.60;;;-1.30;81.50;;;;;;4967914;28;20191;-72
2024/01/20 10:38:00;;;;;;;52.07;20.00;;;-1.20;80.90;;;;;;4964176;28;20195;-69
2024/01/20 10:40:26;;;;;;;44.17;18.73;;;-0.90;80.60;;;;;;4968644;28;20218;-72
2024/01/20 10:43:00;;;;;;;42.23;19.63;;;-0.50;79.90;;;;;;4984556;28;20232;-69
2024/01/20 10:45:33;;;;;;;42.80;19.48;;;0.00;79.00;;;;;;4970201;28;20720;-72
2024/01/20 10:48:02;;;;;;;38.58;18.38;;;0.40;78.00;;;;;;4972109;28;20516;-67
2024/01/20 10:50:28;;;;;;;41.08;18.00;;;0.80;76.80;;;;;;4995462;28;20207;-71
2024/01/20 10:52:55;;;;;;;37.17;17.75;;;1.10;74.60;;;;;;4970471;28;20191;-72
2024/01/20 10:55:22;;;;;;;41.13;19.00;;;1.00;73.20;;;;;;4968726;28;20183;-72
2024/01/20 10:57:49;;;;;;;38.60;17.73;;;1.10;72.90;;;;;;4972062;28;20196;-72
2024/01/20 11:00:17;;;;;;;36.13;17.55;;;1.10;71.80;;;;;;4970265;28;20219;-71
2024/01/20 11:02:44;;;;;;;40.67;19.45;;;0.90;72.00;;;;;;4974870;28;20270;-71
2024/01/20 11:05:22;;;;;;;43.45;18.67;;;0.70;72.00;;;;;;4979796;28;20192;-69
2024/01/20 11:08:03;;;;;;;38.22;18.38;;;0.90;72.60;;;;;;4973207;28;20213;-71
2024/01/20 11:10:29;;;;;;;34.67;17.75;;;1.40;72.70;;;;;;4967035;28;20203;-73
2024/01/20 11:12:59;;;;;;;41.30;18.90;;;1.80;71.80;;;;;;4972858;28;20190;-72
2024/01/20 11:15:30;;;;;;;37.28;18.10;;;2.00;70.70;;;;;;4966068;28;20214;-71
2024/01/20 11:17:55;;;;;;;36.25;17.92;;;2.40;70.20;;;;;;4977763;28;20197;-72
2024/01/20 11:20:21;;;;;;;39.53;17.83;;;2.60;69.40;;;;;;4976855;28;20303;-73
2024/01/20 11:22:47;;;;;;;42.57;16.33;;;2.60;68.20;;;;;;4975650;28;20227;-72
2024/01/20 11:25:14;;;;;;;36.95;17.83;;;2.60;67.70;;;;;;4982593;28;20269;-72
2024/01/20 11:27:58;;;;;;;37.55;17.65;;;2.40;67.50;;;;;;4990028;28;20206;-72
2024/01/20 11:30:34;;;;;;;39.20;17.40;;;2.30;67.60;;;;;;4979663;28;20241;-71
2024/01/20 11:33:01;;;;;;;37.28;18.30;;;2.10;68.00;;;;;;4977402;28;20261;-72
2024/01/20 11:35:27;;;;;;;32.60;16.75;;;1.90;68.30;;;;;;4973436;28;20199;-70
2024/01/20 11:37:57;;;;;;;42.55;18.95;;;1.70;68.50;;;;;;4972558;28;20187;-70
2024/01/20 11:40:23;;;;;;;39.75;18.42;;;1.50;69.10;;;;;;4972708;28;20222;-71
2024/01/20 11:42:49;;;;;;;42.58;18.10;;;1.40;69.50;;;;;;4972773;28;20286;-71
2024/01/20 11:45:16;;;;;;;36.10;17.90;;;1.30;69.70;;;;;;4988198;28;20286;-73
2024/01/20 11:47:42;;;;;;;43.92;19.90;;;1.30;69.90;;;;;;4975177;28;20203;-70
2024/01/20 11:50:09;;;;;;;45.22;18.70;;;1.20;70.20;;;;;;4970466;28;20215;-71
2024/01/20 11:52:35;;;;;;;41.03;18.35;;;1.00;70.40;;;;;;4977268;28;20211;-71
2024/01/20 11:55:01;;;;;;;41.20;18.67;;;0.80;70.80;;;;;;4989992;28;20178;-72
2024/01/20 11:57:29;;;;;;;36.63;16.67;;;0.90;71.60;;;;;;4979599;28;20257;-73
2024/01/20 11:59:56;;;;;;;36.75;17.15;;;0.90;71.40;;;;;;4975502;28;20268;-72
2024/01/20 12:02:22;;;;;;;36.17;16.75;;;0.70;71.40;;;;;;4979876;28;20187;-74
2024/01/20 12:04:48;;;;;;;38.25;16.83;;;0.70;71.80;;;;;;4978994;28;20403;-73
2024/01/20 12:07:14;;;;;;;37.97;17.10;;;0.70;72.00;;;;;;4982097;28;20205;-70
2024/01/20 12:09:53;;;;;;;35.83;15.40;;;0.60;72.00;;;;;;4981083;28;20572;-71
2024/01/20 12:12:19;;;;;;;31.10;14.38;;;0.60;71.70;;;;;;4974364;28;20501;-70
2024/01/20 12:14:45;;;;;;;31.15;14.25;;;0.60;71.10;;;;;;4977303;28;20187;-72
2024/01/20 12:17:12;;;;;;;32.17;14.40;;;0.60;70.70;;;;;;4976168;28;20182;-73
2024/01/20 12:19:39;;;;;;;28.63;13.55;;;0.60;70.80;;;;;;4995186;28;20520;-71
2024/01/20 12:22:09;;;;;;;30.65;13.32;;;0.60;70.70;;;;;;4971189;28;20223;-71